createdAt,value
2023-02-09T00:02:19.530Z,102572.63
2023-02-09T00:04:56.797Z,102577.06
2023-02-09T00:07:25.098Z,102565.44
2023-02-09T00:09:54.609Z,102556.63
2023-02-09T00:12:40.005Z,102562.13
2023-02-09T00:15:09.643Z,102564.13
2023-02-09T00:17:38.857Z,102555.69
2023-02-09T00:20:10.331Z,102550.81
2023-02-09T00:22:38.387Z,102556.50
2023-02-09T00:25:07.331Z,102544.47
2023-02-09T00:27:36.788Z,102551.78
2023-02-09T00:30:06.307Z,102553.81
2023-02-09T00:32:34.729Z,102555.53
2023-02-09T00:35:02.876Z,102554.59
2023-02-09T00:37:32.421Z,102552.72
2023-02-09T00:40:00.621Z,102560.44
2023-02-09T00:42:28.689Z,102553.13
2023-02-09T00:44:56.942Z,102552.84
2023-02-09T00:47:25.245Z,102545.50
2023-02-09T00:49:53.358Z,102554.31
2023-02-09T00:52:21.408Z,102555.38
2023-02-09T00:54:50.886Z,102550.03
2023-02-09T00:57:19.373Z,102565.09
2023-02-09T00:59:47.479Z,102553.34
2023-02-09T01:02:15.560Z,102549.84
2023-02-09T01:04:44.232Z,102554.31
2023-02-09T01:07:12.320Z,102546.44
2023-02-09T01:09:40.381Z,102536.84
2023-02-09T01:12:09.986Z,102535.28
2023-02-09T01:14:39.359Z,102536.69
2023-02-09T01:17:07.526Z,102536.41
2023-02-09T01:19:36.095Z,102539.75
2023-02-09T01:22:04.821Z,102546.53
2023-02-09T01:24:33.053Z,102538.25
2023-02-09T01:27:01.177Z,102541.00
2023-02-09T01:29:30.899Z,102530.31
2023-02-09T01:31:59.187Z,102532.03
2023-02-09T01:34:27.693Z,102541.97
2023-02-09T01:36:55.843Z,102540.91
2023-02-09T01:39:24.299Z,102543.44
2023-02-09T01:41:52.468Z,102553.75
2023-02-09T01:44:57.871Z,102553.41
2023-02-09T01:47:27.396Z,102562.06
2023-02-09T01:49:56.870Z,102572.22
2023-02-09T01:52:28.713Z,102565.59
2023-02-09T01:55:01.773Z,102561.66
2023-02-09T01:57:33.849Z,102553.75
2023-02-09T02:00:06.635Z,102538.44
2023-02-09T02:02:38.478Z,102521.56
2023-02-09T02:05:09.473Z,102531.22
2023-02-09T02:07:43.169Z,102524.16
2023-02-09T02:10:11.463Z,102542.94
2023-02-09T02:12:40.234Z,102536.84
2023-02-09T02:15:09.034Z,102530.78
2023-02-09T02:17:52.908Z,102539.53
2023-02-09T02:20:56.231Z,102547.38
2023-02-09T02:23:31.817Z,102546.16
2023-02-09T02:26:26.690Z,102546.78
2023-02-09T02:29:15.067Z,102552.00
2023-02-09T02:32:04.287Z,102552.00
2023-02-09T02:34:42.333Z,102552.13
2023-02-09T02:37:20.115Z,102557.34
2023-02-09T02:39:57.718Z,102550.19
2023-02-09T02:42:53.120Z,102555.34
2023-02-09T02:45:39.809Z,102553.31
2023-02-09T02:48:19.679Z,102540.41
2023-02-09T02:50:54.670Z,102536.50
2023-02-09T02:53:29.456Z,102536.91
2023-02-09T02:56:06.425Z,102545.22
2023-02-09T02:58:37.560Z,102545.78
2023-02-09T03:01:10.122Z,102532.16
2023-02-09T03:03:43.088Z,102530.06
2023-02-09T03:06:12.296Z,102540.44
2023-02-09T03:08:53.115Z,102544.53
2023-02-09T03:11:27.241Z,102541.34
2023-02-09T03:14:19.953Z,102544.56
2023-02-09T03:16:53.325Z,102535.44
2023-02-09T03:19:36.923Z,102538.75
2023-02-09T03:22:08.947Z,102543.75
2023-02-09T03:24:42.333Z,102539.78
2023-02-09T03:27:16.737Z,102539.47
2023-02-09T03:29:47.575Z,102546.22
2023-02-09T03:32:17.416Z,102545.00
2023-02-09T03:34:47.419Z,102530.50
2023-02-09T03:37:15.647Z,102546.31
2023-02-09T03:39:43.865Z,102530.81
2023-02-09T03:42:12.006Z,102535.91
2023-02-09T03:44:40.098Z,102539.19
2023-02-09T03:47:10.327Z,102542.81
2023-02-09T03:49:40.744Z,102539.13
2023-02-09T03:52:12.108Z,102540.75
2023-02-09T03:54:40.644Z,102539.53
2023-02-09T03:57:08.937Z,102546.34
2023-02-09T03:59:37.901Z,102543.59
2023-02-09T04:02:08.914Z,102546.09
2023-02-09T04:04:37.838Z,102545.06
2023-02-09T04:07:06.166Z,102545.78
2023-02-09T04:09:37.599Z,102539.19
2023-02-09T04:12:05.954Z,102533.56
2023-02-09T04:14:33.911Z,102540.47
2023-02-09T04:17:01.886Z,102533.97
2023-02-09T04:19:29.905Z,102539.25
2023-02-09T04:21:57.901Z,102537.44
2023-02-09T04:24:26.165Z,102540.28
2023-02-09T04:26:55.534Z,102543.56
2023-02-09T04:29:23.608Z,102547.31
2023-02-09T04:31:51.697Z,102547.19
2023-02-09T04:34:21.410Z,102550.75
2023-02-09T04:36:49.472Z,102556.88
2023-02-09T04:39:18.023Z,102552.28
2023-02-09T04:41:46.078Z,102555.72
2023-02-09T04:44:15.690Z,102555.72
2023-02-09T04:46:45.639Z,102550.09
2023-02-09T04:49:13.916Z,102554.25
2023-02-09T04:51:41.989Z,102559.53
2023-02-09T04:54:10.203Z,102551.50
2023-02-09T04:56:38.955Z,102564.91
2023-02-09T04:59:24.353Z,102552.25
2023-02-09T05:01:53.851Z,102568.28
2023-02-09T05:04:21.904Z,102563.41
2023-02-09T05:06:50.427Z,102567.81
2023-02-09T05:09:18.496Z,102570.22
2023-02-09T05:11:46.754Z,102568.22
2023-02-09T05:14:14.800Z,102566.41
2023-02-09T05:16:42.946Z,102566.50
2023-02-09T05:19:12.494Z,102570.81
2023-02-09T05:21:41.036Z,102561.16
2023-02-09T05:24:09.117Z,102577.50
2023-02-09T05:26:37.450Z,102582.94
2023-02-09T05:29:05.792Z,102581.38
2023-02-09T05:31:34.249Z,102588.50
2023-02-09T05:34:02.363Z,102588.75
2023-02-09T05:36:31.720Z,102589.72
2023-02-09T05:38:59.745Z,102597.06
2023-02-09T05:41:44.926Z,102603.66
2023-02-09T05:44:12.933Z,102604.88
2023-02-09T05:46:41.042Z,102601.38
2023-02-09T05:49:09.081Z,102611.59
2023-02-09T05:51:38.574Z,102615.31
2023-02-09T05:54:06.729Z,102610.91
2023-02-09T05:56:35.716Z,102622.66
2023-02-09T05:59:04.735Z,102625.41
2023-02-09T06:01:33.036Z,102621.03
2023-02-09T06:04:01.075Z,102622.13
2023-02-09T06:06:29.039Z,102627.41
2023-02-09T06:08:58.308Z,102617.72
2023-02-09T06:11:26.381Z,102629.41
2023-02-09T06:13:54.409Z,102626.72
2023-02-09T06:16:22.615Z,102619.81
2023-02-09T06:18:50.577Z,102632.25
2023-02-09T06:21:19.208Z,102641.22
2023-02-09T06:23:47.338Z,102635.88
2023-02-09T06:26:18.301Z,102642.19
2023-02-09T06:28:46.868Z,102654.63
2023-02-09T06:31:15.246Z,102659.91
2023-02-09T06:33:43.537Z,102666.91
2023-02-09T06:36:12.011Z,102673.03
2023-02-09T06:38:40.294Z,102665.78
2023-02-09T06:41:08.597Z,102676.31
2023-02-09T06:43:38.021Z,102677.38
2023-02-09T06:46:09.777Z,102689.72
2023-02-09T06:48:38.329Z,102687.47
2023-02-09T06:51:09.662Z,102691.31
2023-02-09T06:53:38.119Z,102693.16
2023-02-09T06:56:06.711Z,102700.16
2023-02-09T06:58:34.992Z,102709.94
2023-02-09T07:01:05.308Z,102710.06
2023-02-09T07:03:34.407Z,102724.75
2023-02-09T07:06:07.224Z,102728.66
2023-02-09T07:08:35.683Z,102734.25
2023-02-09T07:11:04.607Z,102736.22
2023-02-09T07:13:33.188Z,102741.81
2023-02-09T07:16:02.583Z,102750.03
2023-02-09T07:18:32.301Z,102752.19
2023-02-09T07:21:02.001Z,102748.88
2023-02-09T07:23:30.829Z,102758.09
2023-02-09T07:26:03.150Z,102768.09
2023-02-09T07:28:31.401Z,102774.53
2023-02-09T07:31:04.550Z,102781.00
2023-02-09T07:33:34.659Z,102789.09
2023-02-09T07:36:05.928Z,102788.25
2023-02-09T07:38:34.946Z,102785.56
2023-02-09T07:41:05.080Z,102788.16
2023-02-09T07:43:33.826Z,102796.03
2023-02-09T07:46:02.772Z,102796.81
2023-02-09T07:48:31.458Z,102794.09
2023-02-09T07:51:01.394Z,102813.59
2023-02-09T07:53:30.366Z,102810.91
2023-02-09T07:55:58.879Z,102808.31
2023-02-09T07:58:26.932Z,102815.50
2023-02-09T08:00:54.998Z,102806.50
2023-02-09T08:03:25.895Z,102805.56
2023-02-09T08:05:59.835Z,102808.09
2023-02-09T08:08:29.301Z,102808.78
2023-02-09T08:10:59.389Z,102815.81
2023-02-09T08:13:31.426Z,102813.03
2023-02-09T08:16:04.829Z,102822.03
2023-02-09T08:18:37.396Z,102829.28
2023-02-09T08:21:07.795Z,102832.97
2023-02-09T08:23:39.526Z,102832.97
2023-02-09T08:26:11.525Z,102847.28
2023-02-09T08:28:44.964Z,102851.59
2023-02-09T08:31:13.781Z,102847.94
2023-02-09T08:33:42.022Z,102860.38
2023-02-09T08:36:10.530Z,102862.91
2023-02-09T08:38:40.504Z,102864.63
2023-02-09T08:41:10.834Z,102874.28
2023-02-09T08:43:39.145Z,102876.00
2023-02-09T08:46:09.653Z,102870.66
2023-02-09T08:48:43.861Z,102882.84
2023-02-09T08:51:14.006Z,102874.72
2023-02-09T08:53:46.239Z,102875.34
2023-02-09T08:56:14.285Z,102875.94
2023-02-09T08:58:42.420Z,102883.75
2023-02-09T09:01:10.526Z,102874.53
2023-02-09T09:03:38.669Z,102891.22
2023-02-09T09:06:08.431Z,102890.25
2023-02-09T09:08:38.617Z,102890.19
2023-02-09T09:11:12.968Z,102894.53
2023-02-09T09:13:41.803Z,102899.88
2023-02-09T09:16:15.691Z,102900.66
2023-02-09T09:18:44.675Z,102893.34
2023-02-09T09:21:13.199Z,102898.53
2023-02-09T09:23:41.224Z,102895.63
2023-02-09T09:26:10.705Z,102903.56
2023-02-09T09:28:39.312Z,102912.47
2023-02-09T09:31:11.607Z,102918.69
2023-02-09T09:33:40.176Z,102918.00
2023-02-09T09:36:09.207Z,102923.28
2023-02-09T09:38:40.549Z,102917.94
2023-02-09T09:41:26.839Z,102917.75
2023-02-09T09:43:55.998Z,102917.94
2023-02-09T09:46:32.080Z,102920.84
2023-02-09T09:49:01.340Z,102921.84
2023-02-09T09:51:38.154Z,102927.38
2023-02-09T09:54:09.373Z,102930.06
2023-02-09T09:56:41.167Z,102937.94
2023-02-09T09:59:20.056Z,102938.88
2023-02-09T10:01:50.384Z,102945.91
2023-02-09T10:04:19.838Z,102949.59
2023-02-09T10:06:53.694Z,102952.59
2023-02-09T10:09:30.480Z,102952.84
2023-02-09T10:12:13.361Z,102962.03
2023-02-09T10:14:41.417Z,102958.72
2023-02-09T10:17:09.715Z,102956.28
2023-02-09T10:19:38.034Z,102962.66
2023-02-09T10:22:12.144Z,102966.19
2023-02-09T10:24:42.140Z,102971.75
2023-02-09T10:27:16.323Z,102986.91
2023-02-09T10:29:44.551Z,102989.09
2023-02-09T10:32:17.997Z,102991.13
2023-02-09T10:34:49.016Z,102999.16
2023-02-09T10:37:23.698Z,103009.78
2023-02-09T10:40:01.676Z,103003.47
2023-02-09T10:42:34.037Z,103007.91
2023-02-09T10:45:08.560Z,103008.78
2023-02-09T10:47:36.618Z,103001.63
2023-02-09T10:50:17.242Z,102995.69
2023-02-09T10:52:56.601Z,102990.44
2023-02-09T10:55:29.214Z,102995.03
2023-02-09T10:58:23.230Z,102993.34
2023-02-09T11:00:59.238Z,103001.50
2023-02-09T11:03:27.667Z,103011.31
2023-02-09T11:06:01.455Z,103011.31
2023-02-09T11:08:45.481Z,103016.56
2023-02-09T11:11:33.140Z,103011.00
2023-02-09T11:14:03.374Z,103012.63
2023-02-09T11:16:58.105Z,103017.75
2023-02-09T11:19:51.545Z,103021.13
2023-02-09T11:22:29.671Z,103020.28
2023-02-09T11:25:07.908Z,103021.94
2023-02-09T11:27:55.913Z,103026.44
2023-02-09T11:30:36.839Z,103021.09
2023-02-09T11:33:12.153Z,103016.44
2023-02-09T11:35:49.442Z,103015.50
2023-02-09T11:38:21.914Z,103020.69
2023-02-09T11:40:55.101Z,103020.69
2023-02-09T11:43:28.921Z,103023.16
2023-02-09T11:46:02.047Z,103016.06
2023-02-09T11:48:33.005Z,103015.69
2023-02-09T11:51:06.579Z,103012.00
2023-02-09T11:53:42.584Z,103012.53
2023-02-09T11:56:13.658Z,103020.34
2023-02-09T11:58:51.180Z,103011.81
2023-02-09T12:01:31.237Z,103020.53
2023-02-09T12:04:06.905Z,103006.84
2023-02-09T12:06:45.361Z,103005.34
2023-02-09T12:09:25.911Z,103017.94
2023-02-09T12:12:02.966Z,103009.09
2023-02-09T12:14:49.133Z,103012.63
2023-02-09T12:17:21.841Z,103006.88
2023-02-09T12:19:58.653Z,103007.66
2023-02-09T12:22:53.677Z,103000.66
2023-02-09T12:25:33.157Z,103006.72
2023-02-09T12:28:42.736Z,102987.13
2023-02-09T12:31:15.173Z,103005.41
2023-02-09T12:34:21.612Z,102998.78
2023-02-09T12:37:19.174Z,103004.44
2023-02-09T12:40:23.967Z,103001.84
2023-02-09T12:43:27.368Z,102991.56
2023-02-09T12:46:20.162Z,102985.41
2023-02-09T12:49:04.614Z,102984.13
2023-02-09T12:51:48.718Z,102974.00
2023-02-09T12:54:41.341Z,102984.34
2023-02-09T12:57:48.646Z,102976.72
2023-02-09T13:00:58.279Z,102981.03
2023-02-09T13:03:27.760Z,102973.94
2023-02-09T13:06:00.878Z,102978.81
2023-02-09T13:08:35.246Z,102988.88
2023-02-09T13:11:19.219Z,102990.38
2023-02-09T13:13:53.697Z,102979.38
2023-02-09T13:16:51.703Z,102989.13
2023-02-09T13:19:47.036Z,102983.94
2023-02-09T13:22:28.676Z,102982.91
2023-02-09T13:25:00.545Z,102984.38
2023-02-09T13:27:33.871Z,102992.09
2023-02-09T13:30:01.895Z,102999.44
2023-02-09T13:32:43.177Z,102999.31
2023-02-09T13:35:20.337Z,102996.31
2023-02-09T13:37:50.756Z,102996.25
2023-02-09T13:40:23.958Z,102989.28
2023-02-09T13:42:56.756Z,102995.41
2023-02-09T13:45:26.852Z,102988.25
2023-02-09T13:47:55.556Z,102987.47
2023-02-09T13:50:26.046Z,102988.34
2023-02-09T13:52:54.117Z,102992.00
2023-02-09T13:55:24.493Z,102982.44
2023-02-09T13:57:59.531Z,102991.78
2023-02-09T14:00:30.738Z,102986.06
2023-02-09T14:03:01.567Z,102993.41
2023-02-09T14:05:39.428Z,102986.97
2023-02-09T14:08:08.075Z,102999.72
2023-02-09T14:10:36.682Z,103002.22
2023-02-09T14:13:13.176Z,102999.44
2023-02-09T14:16:01.591Z,103009.25
2023-02-09T14:18:32.866Z,103007.78
2023-02-09T14:21:15.070Z,102996.63
2023-02-09T14:23:44.857Z,103005.66
2023-02-09T14:26:23.746Z,103005.63
2023-02-09T14:28:55.831Z,103014.44
2023-02-09T14:31:26.643Z,103013.66
2023-02-09T14:33:57.013Z,103010.00
2023-02-09T14:36:30.517Z,102998.91
2023-02-09T14:39:11.233Z,103003.06
2023-02-09T14:41:40.146Z,102998.28
2023-02-09T14:44:22.136Z,103003.75
2023-02-09T14:46:52.393Z,103010.69
2023-02-09T14:49:22.537Z,103018.81
2023-02-09T14:51:52.841Z,103013.63
2023-02-09T14:54:26.739Z,103013.97
2023-02-09T14:56:58.481Z,103014.91
2023-02-09T14:59:28.867Z,103026.69
2023-02-09T15:01:57.004Z,103018.00
2023-02-09T15:04:25.098Z,103026.75
2023-02-09T15:07:02.570Z,103027.47
2023-02-09T15:09:38.091Z,103026.00
2023-02-09T15:12:07.465Z,103033.53
2023-02-09T15:14:42.694Z,103030.00
2023-02-09T15:17:16.034Z,103033.72
2023-02-09T15:19:44.556Z,103030.91
2023-02-09T15:22:15.352Z,103036.47
2023-02-09T15:24:44.124Z,103030.06
2023-02-09T15:27:18.565Z,103030.78
2023-02-09T15:29:48.107Z,103039.38
2023-02-09T15:32:18.417Z,103042.28
2023-02-09T15:34:46.773Z,103053.84
2023-02-09T15:37:20.998Z,103043.78
2023-02-09T15:39:50.916Z,103041.41
2023-02-09T15:42:37.875Z,103044.91
2023-02-09T15:45:36.127Z,103047.03
2023-02-09T15:48:04.916Z,103053.09
2023-02-09T15:50:34.379Z,103051.06
2023-02-09T15:53:05.509Z,103064.00
2023-02-09T15:55:34.852Z,103056.50
2023-02-09T15:58:05.290Z,103069.34
2023-02-09T16:00:34.674Z,103064.03
2023-02-09T16:03:16.007Z,103062.31
2023-02-09T16:05:44.547Z,103056.59
2023-02-09T16:08:19.435Z,103057.38
2023-02-09T16:10:48.646Z,103066.03
2023-02-09T16:13:18.226Z,103060.69
2023-02-09T16:15:49.493Z,103068.81
2023-02-09T16:18:17.723Z,103066.28
2023-02-09T16:20:48.772Z,103066.66
2023-02-09T16:23:21.234Z,103056.22
2023-02-09T16:25:50.767Z,103069.50
2023-02-09T16:28:19.016Z,103056.97
2023-02-09T16:30:54.458Z,103073.44
2023-02-09T16:33:23.867Z,103072.72
2023-02-09T16:35:55.001Z,103063.91
2023-02-09T16:38:24.129Z,103068.78
2023-02-09T16:40:52.717Z,103070.03
2023-02-09T16:43:22.028Z,103083.66
2023-02-09T16:46:03.191Z,103082.47
2023-02-09T16:48:34.645Z,103085.28
2023-02-09T16:51:03.394Z,103089.97
2023-02-09T16:53:34.167Z,103095.53
2023-02-09T16:56:04.835Z,103101.03
2023-02-09T16:58:33.150Z,103106.59
2023-02-09T17:01:02.816Z,103103.38
2023-02-09T17:03:34.830Z,103102.72
2023-02-09T17:06:03.493Z,103111.19
2023-02-09T17:08:33.107Z,103110.81
2023-02-09T17:11:02.631Z,103115.75
2023-02-09T17:13:30.984Z,103109.25
2023-02-09T17:16:03.238Z,103117.94
2023-02-09T17:18:35.181Z,103131.88
2023-02-09T17:21:06.985Z,103122.72
2023-02-09T17:23:35.526Z,103117.00
2023-02-09T17:26:03.617Z,103118.41
2023-02-09T17:28:32.435Z,103116.22
2023-02-09T17:31:03.668Z,103116.69
2023-02-09T17:33:34.095Z,103131.25
2023-02-09T17:36:25.194Z,103135.38
2023-02-09T17:38:51.973Z,103141.03
2023-02-09T17:41:22.256Z,103148.47
2023-02-09T17:43:52.677Z,103147.06
2023-02-09T17:46:22.353Z,103149.06
2023-02-09T17:48:50.373Z,103165.25
2023-02-09T17:51:21.869Z,103160.09
2023-02-09T17:53:50.239Z,103156.81
2023-02-09T17:56:19.441Z,103156.97
2023-02-09T17:58:48.078Z,103166.09
2023-02-09T18:01:27.161Z,103172.63
2023-02-09T18:03:55.825Z,103174.91
2023-02-09T18:06:30.019Z,103180.72
2023-02-09T18:08:57.979Z,103183.81
2023-02-09T18:11:41.161Z,103180.81
2023-02-09T18:14:11.396Z,103178.63
2023-02-09T18:16:41.399Z,103180.72
2023-02-09T18:19:09.729Z,103196.88
2023-02-09T18:21:38.040Z,103197.13
2023-02-09T18:24:07.178Z,103199.28
2023-02-09T18:29:32.853Z,103198.31
2023-02-09T18:32:04.049Z,103203.13
2023-02-09T18:34:32.390Z,103206.13
2023-02-09T18:37:00.542Z,103199.47
2023-02-09T18:39:28.552Z,103209.59
2023-02-09T18:41:57.859Z,103212.63
2023-02-09T18:44:29.417Z,103220.00
2023-02-09T18:46:58.397Z,103219.38
2023-02-09T18:49:27.838Z,103219.72
2023-02-09T18:51:57.072Z,103222.63
2023-02-09T18:54:26.158Z,103214.03
2023-02-09T18:56:56.119Z,103214.34
2023-02-09T18:59:24.388Z,103211.06
2023-02-09T19:01:52.480Z,103210.41
2023-02-09T19:04:20.540Z,103220.38
2023-02-09T19:06:52.498Z,103209.13
2023-02-09T19:09:21.190Z,103212.00
2023-02-09T19:14:56.385Z,103214.25
2023-02-09T19:17:25.114Z,103222.41
2023-02-09T19:19:53.406Z,103231.44
2023-02-09T19:22:25.075Z,103242.16
2023-02-09T19:24:56.256Z,103237.84
2023-02-09T19:27:26.194Z,103244.03
2023-02-09T19:29:56.294Z,103243.19
2023-02-09T19:32:36.562Z,103247.63
2023-02-09T19:35:18.566Z,103244.97
2023-02-09T19:37:51.613Z,103254.72
2023-02-09T19:40:27.754Z,103250.38
2023-02-09T19:42:56.190Z,103258.41
2023-02-09T19:45:24.316Z,103260.28
2023-02-09T19:47:52.617Z,103263.00
2023-02-09T19:50:21.061Z,103261.34
2023-02-09T19:52:50.575Z,103259.63
2023-02-09T19:55:18.832Z,103255.25
2023-02-09T19:57:46.966Z,103258.88
2023-02-09T20:00:18.202Z,103259.78
2023-02-09T20:02:46.556Z,103266.00
2023-02-09T20:05:14.613Z,103262.53
2023-02-09T20:07:42.802Z,103265.19
2023-02-09T20:10:14.039Z,103260.81
2023-02-09T20:12:42.066Z,103260.88
2023-02-09T20:15:10.130Z,103273.22
2023-02-09T20:17:38.166Z,103266.22
2023-02-09T20:20:06.922Z,103269.78
2023-02-09T20:22:36.813Z,103266.22
2023-02-09T20:25:05.455Z,103268.00
2023-02-09T20:27:35.637Z,103275.06
2023-02-09T20:30:04.134Z,103268.06
2023-02-09T20:32:32.315Z,103264.59
2023-02-09T20:35:00.810Z,103259.34
2023-02-09T20:37:29.648Z,103268.25
2023-02-09T20:39:57.881Z,103276.22
2023-02-09T20:42:43.409Z,103276.31
2023-02-09T20:45:32.304Z,103271.97
2023-02-09T20:48:00.300Z,103281.75
2023-02-09T20:50:28.600Z,103280.06
2023-02-09T20:52:56.777Z,103288.91
2023-02-09T20:55:24.888Z,103293.38
2023-02-09T20:57:53.260Z,103295.16
2023-02-09T21:00:24.564Z,103295.13
2023-02-09T21:02:53.332Z,103288.94
2023-02-09T21:05:21.359Z,103279.19
2023-02-09T21:07:52.395Z,103283.56
2023-02-09T21:10:20.548Z,103288.88
2023-02-09T21:12:48.986Z,103285.47
2023-02-09T21:15:19.755Z,103276.72
2023-02-09T21:17:51.743Z,103280.34
2023-02-09T21:20:20.056Z,103275.13
2023-02-09T21:22:50.466Z,103273.38
2023-02-09T21:25:20.688Z,103279.50
2023-02-09T21:27:50.315Z,103276.88
2023-02-09T21:30:20.782Z,103282.13
2023-02-09T21:32:50.943Z,103285.69
2023-02-09T21:35:19.491Z,103278.66
2023-02-09T21:37:48.261Z,103283.97
2023-02-09T21:40:16.983Z,103278.72
2023-02-09T21:42:45.743Z,103280.53
2023-02-09T21:45:14.508Z,103277.00
2023-02-09T21:47:43.427Z,103282.31
2023-02-09T21:50:14.789Z,103269.13
2023-02-09T21:52:43.438Z,103270.88
2023-02-09T21:55:13.567Z,103267.31
2023-02-09T21:57:43.591Z,103270.88
2023-02-09T22:00:15.554Z,103270.91
2023-02-09T22:02:43.764Z,103270.09
2023-02-09T22:05:13.563Z,103269.25
2023-02-09T22:07:41.613Z,103279.00
2023-02-09T22:10:10.034Z,103279.09
2023-02-09T22:12:38.821Z,103272.09
2023-02-09T22:15:07.643Z,103277.47
2023-02-09T22:17:37.842Z,103275.75
2023-02-09T22:20:06.604Z,103274.91
2023-02-09T22:22:36.590Z,103278.53
2023-02-09T22:25:04.687Z,103276.84
2023-02-09T22:27:32.776Z,103279.56
2023-02-09T22:30:00.725Z,103283.13
2023-02-09T22:32:31.945Z,103292.91
2023-02-09T22:34:59.996Z,103292.00
2023-02-09T22:37:28.028Z,103296.47
2023-02-09T22:39:57.583Z,103288.53
2023-02-09T22:42:25.833Z,103293.81
2023-02-09T22:44:53.882Z,103295.56
2023-02-09T22:47:21.863Z,103286.75
2023-02-09T22:49:50.057Z,103298.16
2023-02-09T22:52:18.199Z,103294.63
2023-02-09T22:54:46.301Z,103297.28
2023-02-09T22:57:16.000Z,103297.28
2023-02-09T22:59:44.267Z,103305.19
2023-02-09T23:02:12.762Z,103297.28
2023-02-09T23:04:40.838Z,103290.19
2023-02-09T23:07:08.802Z,103294.63
2023-02-09T23:09:38.266Z,103294.63
2023-02-09T23:12:07.049Z,103290.16
2023-02-09T23:14:36.578Z,103293.69
2023-02-09T23:17:04.631Z,103291.91
2023-02-09T23:19:32.760Z,103295.47
2023-02-09T23:22:01.054Z,103289.31
2023-02-09T23:24:29.373Z,103292.84
2023-02-09T23:26:57.864Z,103296.41
2023-02-09T23:29:25.986Z,103303.44
2023-02-09T23:31:55.454Z,103306.91
2023-02-09T23:34:24.463Z,103299.84
2023-02-09T23:36:52.697Z,103319.22
2023-02-09T23:39:22.694Z,103301.59
2023-02-09T23:41:50.938Z,103300.72
2023-02-09T23:44:19.581Z,103293.69
2023-02-09T23:46:47.700Z,103291.94
2023-02-09T23:49:17.121Z,103301.69
2023-02-09T23:51:45.596Z,103295.56
2023-02-09T23:54:13.930Z,103312.28
2023-02-09T23:56:41.957Z,103310.56
2023-02-09T23:59:12.658Z,103312.34
